sensor_id;sensor_type;location;lat;lon;timestamp;P1;P2;P0
73241;PMS5003;65659;49.234;-2.094;2023-01-09T00:01:23;1;1;
73241;PMS5003;65659;49.234;-2.094;2023-01-09T00:03:47;1;1;
73241;PMS5003;65659;49.234;-2.094;2023-01-09T00:06:13;1;0;
73241;PMS5003;65659;49.234;-2.094;2023-01-09T00:08:39;1;1;
73241;PMS5003;65659;49.234;-2.094;2023-01-09T00:11:04;0;0;
73241;PMS5003;65659;49.234;-2.094;2023-01-09T00:13:30;1;1;
73241;PMS5003;65659;49.234;-2.094;2023-01-09T00:15:56;1;1;
73241;PMS5003;65659;49.234;-2.094;2023-01-09T00:18:26;2;1;
73241;PMS5003;65659;49.234;-2.094;2023-01-09T00:20:47;1;1;
73241;PMS5003;65659;49.234;-2.094;2023-01-09T00:23:13;2;1;
73241;PMS5003;65659;49.234;-2.094;2023-01-09T00:25:39;1;1;
73241;PMS5003;65659;49.234;-2.094;2023-01-09T00:28:04;1;0;
73241;PMS5003;65659;49.234;-2.094;2023-01-09T00:30:30;3;1;
73241;PMS5003;65659;49.234;-2.094;2023-01-09T00:32:56;2;1;
73241;PMS5003;65659;49.234;-2.094;2023-01-09T00:35:22;2;2;
73241;PMS5003;65659;49.234;-2.094;2023-01-09T00:37:47;1;1;
73241;PMS5003;65659;49.234;-2.094;2023-01-09T00:40:13;1;1;
73241;PMS5003;65659;49.234;-2.094;2023-01-09T00:42:39;1;1;
73241;PMS5003;65659;49.234;-2.094;2023-01-09T00:45:06;1;1;
73241;PMS5003;65659;49.234;-2.094;2023-01-09T00:47:31;2;1;
73241;PMS5003;65659;49.234;-2.094;2023-01-09T00:49:56;1;1;
73241;PMS5003;65659;49.234;-2.094;2023-01-09T00:52:21;1;1;
73241;PMS5003;65659;49.234;-2.094;2023-01-09T00:54:47;0;0;
73241;PMS5003;65659;49.234;-2.094;2023-01-09T00:57:13;1;1;
73241;PMS5003;65659;49.234;-2.094;2023-01-09T00:59:38;2;1;
73241;PMS5003;65659;49.234;-2.094;2023-01-09T01:02:04;1;0;
73241;PMS5003;65659;49.234;-2.094;2023-01-09T01:04:30;1;1;
73241;PMS5003;65659;49.234;-2.094;2023-01-09T01:06:56;1;1;
73241;PMS5003;65659;49.234;-2.094;2023-01-09T01:09:21;0;0;
73241;PMS5003;65659;49.234;-2.094;2023-01-09T01:11:47;0;0;
73241;PMS5003;65659;49.234;-2.094;2023-01-09T01:14:13;1;0;
73241;PMS5003;65659;49.234;-2.094;2023-01-09T01:16:38;3;1;
73241;PMS5003;65659;49.234;-2.094;2023-01-09T01:19:04;0;0;
73241;PMS5003;65659;49.234;-2.094;2023-01-09T01:21:30;1;1;
73241;PMS5003;65659;49.234;-2.094;2023-01-09T01:23:57;0;0;
73241;PMS5003;65659;49.234;-2.094;2023-01-09T01:26:21;1;0;
73241;PMS5003;65659;49.234;-2.094;2023-01-09T01:28:47;1;0;
73241;PMS5003;65659;49.234;-2.094;2023-01-09T01:31:14;1;1;
73241;PMS5003;65659;49.234;-2.094;2023-01-09T01:33:38;1;1;
73241;PMS5003;65659;49.234;-2.094;2023-01-09T01:36:06;1;0;
73241;PMS5003;65659;49.234;-2.094;2023-01-09T01:38:30;1;1;
73241;PMS5003;65659;49.234;-2.094;2023-01-09T01:40:56;1;0;
73241;PMS5003;65659;49.234;-2.094;2023-01-09T01:43:22;1;1;
73241;PMS5003;65659;49.234;-2.094;2023-01-09T01:45:47;1;1;
73241;PMS5003;65659;49.234;-2.094;2023-01-09T01:48:13;2;1;
73241;PMS5003;65659;49.234;-2.094;2023-01-09T01:50:40;2;2;
73241;PMS5003;65659;49.234;-2.094;2023-01-09T01:53:06;0;0;
73241;PMS5003;65659;49.234;-2.094;2023-01-09T01:55:30;1;1;
73241;PMS5003;65659;49.234;-2.094;2023-01-09T01:57:58;0;0;
73241;PMS5003;65659;49.234;-2.094;2023-01-09T02:00:22;2;2;
73241;PMS5003;65659;49.234;-2.094;2023-01-09T02:02:47;1;0;
73241;PMS5003;65659;49.234;-2.094;2023-01-09T02:05:13;1;1;
73241;PMS5003;65659;49.234;-2.094;2023-01-09T02:07:39;1;1;
73241;PMS5003;65659;49.234;-2.094;2023-01-09T02:10:05;2;2;
73241;PMS5003;65659;49.234;-2.094;2023-01-09T02:12:30;0;0;
73241;PMS5003;65659;49.234;-2.094;2023-01-09T02:14:57;0;0;
73241;PMS5003;65659;49.234;-2.094;2023-01-09T02:17:29;1;0;
73241;PMS5003;65659;49.234;-2.094;2023-01-09T02:22:20;1;1;
73241;PMS5003;65659;49.234;-2.094;2023-01-09T02:24:45;3;2;
73241;PMS5003;65659;49.234;-2.094;2023-01-09T02:27:07;2;1;
73241;PMS5003;65659;49.234;-2.094;2023-01-09T02:31:57;0;0;
73241;PMS5003;65659;49.234;-2.094;2023-01-09T02:34:23;0;0;
73241;PMS5003;65659;49.234;-2.094;2023-01-09T02:36:49;2;1;
73241;PMS5003;65659;49.234;-2.094;2023-01-09T02:39:17;2;1;
73241;PMS5003;65659;49.234;-2.094;2023-01-09T02:41:42;0;0;
73241;PMS5003;65659;49.234;-2.094;2023-01-09T02:44:11;0;0;
73241;PMS5003;65659;49.234;-2.094;2023-01-09T02:46:31;2;1;
73241;PMS5003;65659;49.234;-2.094;2023-01-09T02:48:56;1;0;
73241;PMS5003;65659;49.234;-2.094;2023-01-09T02:51:24;1;0;
73241;PMS5003;65659;49.234;-2.094;2023-01-09T02:53:53;2;1;
73241;PMS5003;65659;49.234;-2.094;2023-01-09T02:56:18;1;0;
73241;PMS5003;65659;49.234;-2.094;2023-01-09T02:58:45;1;1;
73241;PMS5003;65659;49.234;-2.094;2023-01-09T03:01:08;2;0;
73241;PMS5003;65659;49.234;-2.094;2023-01-09T03:03:33;1;1;
73241;PMS5003;65659;49.234;-2.094;2023-01-09T03:05:57;1;1;
73241;PMS5003;65659;49.234;-2.094;2023-01-09T03:08:23;1;0;
73241;PMS5003;65659;49.234;-2.094;2023-01-09T03:10:49;1;1;
73241;PMS5003;65659;49.234;-2.094;2023-01-09T03:13:15;0;0;
73241;PMS5003;65659;49.234;-2.094;2023-01-09T03:15:39;2;1;
73241;PMS5003;65659;49.234;-2.094;2023-01-09T03:18:05;1;1;
73241;PMS5003;65659;49.234;-2.094;2023-01-09T03:20:30;1;0;
73241;PMS5003;65659;49.234;-2.094;2023-01-09T03:22:57;2;2;
73241;PMS5003;65659;49.234;-2.094;2023-01-09T03:25:23;1;1;
73241;PMS5003;65659;49.234;-2.094;2023-01-09T03:27:48;1;0;
73241;PMS5003;65659;49.234;-2.094;2023-01-09T03:30:14;2;1;
73241;PMS5003;65659;49.234;-2.094;2023-01-09T03:32:39;1;1;
73241;PMS5003;65659;49.234;-2.094;2023-01-09T03:35:05;1;1;
73241;PMS5003;65659;49.234;-2.094;2023-01-09T03:37:31;1;1;
73241;PMS5003;65659;49.234;-2.094;2023-01-09T03:39:56;3;2;
73241;PMS5003;65659;49.234;-2.094;2023-01-09T03:42:22;2;1;
73241;PMS5003;65659;49.234;-2.094;2023-01-09T03:44:48;1;1;
73241;PMS5003;65659;49.234;-2.094;2023-01-09T03:47:13;1;1;
73241;PMS5003;65659;49.234;-2.094;2023-01-09T03:49:39;0;0;
73241;PMS5003;65659;49.234;-2.094;2023-01-09T03:52:05;1;1;
73241;PMS5003;65659;49.234;-2.094;2023-01-09T03:54:31;1;1;
73241;PMS5003;65659;49.234;-2.094;2023-01-09T03:56:56;1;1;
73241;PMS5003;65659;49.234;-2.094;2023-01-09T03:59:22;1;1;
73241;PMS5003;65659;49.234;-2.094;2023-01-09T04:01:48;2;1;
73241;PMS5003;65659;49.234;-2.094;2023-01-09T04:04:14;0;0;
73241;PMS5003;65659;49.234;-2.094;2023-01-09T04:06:39;1;0;
73241;PMS5003;65659;49.234;-2.094;2023-01-09T04:09:05;2;2;
73241;PMS5003;65659;49.234;-2.094;2023-01-09T04:11:31;2;1;
73241;PMS5003;65659;49.234;-2.094;2023-01-09T04:13:56;1;1;
73241;PMS5003;65659;49.234;-2.094;2023-01-09T04:16:22;2;2;
73241;PMS5003;65659;49.234;-2.094;2023-01-09T04:18:48;1;1;
73241;PMS5003;65659;49.234;-2.094;2023-01-09T04:21:14;1;1;
73241;PMS5003;65659;49.234;-2.094;2023-01-09T04:23:39;4;4;
73241;PMS5003;65659;49.234;-2.094;2023-01-09T04:26:05;2;1;
73241;PMS5003;65659;49.234;-2.094;2023-01-09T04:28:31;2;1;
73241;PMS5003;65659;49.234;-2.094;2023-01-09T04:30:56;1;1;
73241;PMS5003;65659;49.234;-2.094;2023-01-09T04:33:22;0;0;
73241;PMS5003;65659;49.234;-2.094;2023-01-09T04:35:48;0;0;
73241;PMS5003;65659;49.234;-2.094;2023-01-09T04:38:14;1;1;
73241;PMS5003;65659;49.234;-2.094;2023-01-09T04:40:39;1;1;
73241;PMS5003;65659;49.234;-2.094;2023-01-09T04:43:05;2;2;
73241;PMS5003;65659;49.234;-2.094;2023-01-09T04:45:31;1;1;
73241;PMS5003;65659;49.234;-2.094;2023-01-09T04:47:56;0;0;
73241;PMS5003;65659;49.234;-2.094;2023-01-09T04:50:22;0;0;
73241;PMS5003;65659;49.234;-2.094;2023-01-09T04:52:48;1;0;
73241;PMS5003;65659;49.234;-2.094;2023-01-09T04:55:14;1;1;
73241;PMS5003;65659;49.234;-2.094;2023-01-09T04:57:39;2;2;
73241;PMS5003;65659;49.234;-2.094;2023-01-09T05:00:05;1;0;
73241;PMS5003;65659;49.234;-2.094;2023-01-09T05:02:31;0;0;
73241;PMS5003;65659;49.234;-2.094;2023-01-09T05:04:56;1;0;
73241;PMS5003;65659;49.234;-2.094;2023-01-09T05:07:22;0;0;
73241;PMS5003;65659;49.234;-2.094;2023-01-09T05:09:48;0;0;
73241;PMS5003;65659;49.234;-2.094;2023-01-09T05:12:14;1;1;
73241;PMS5003;65659;49.234;-2.094;2023-01-09T05:14:40;1;0;
73241;PMS5003;65659;49.234;-2.094;2023-01-09T05:17:05;2;1;
73241;PMS5003;65659;49.234;-2.094;2023-01-09T05:19:31;1;0;
73241;PMS5003;65659;49.234;-2.094;2023-01-09T05:21:57;0;0;
73241;PMS5003;65659;49.234;-2.094;2023-01-09T05:24:22;0;0;
73241;PMS5003;65659;49.234;-2.094;2023-01-09T05:26:48;2;1;
73241;PMS5003;65659;49.234;-2.094;2023-01-09T05:29:14;1;1;
73241;PMS5003;65659;49.234;-2.094;2023-01-09T05:31:39;2;2;
73241;PMS5003;65659;49.234;-2.094;2023-01-09T05:34:05;1;1;
73241;PMS5003;65659;49.234;-2.094;2023-01-09T05:36:31;0;0;
73241;PMS5003;65659;49.234;-2.094;2023-01-09T05:38:57;1;1;
73241;PMS5003;65659;49.234;-2.094;2023-01-09T05:41:22;1;0;
73241;PMS5003;65659;49.234;-2.094;2023-01-09T05:43:48;2;2;
73241;PMS5003;65659;49.234;-2.094;2023-01-09T05:46:14;1;1;
73241;PMS5003;65659;49.234;-2.094;2023-01-09T05:48:40;1;1;
73241;PMS5003;65659;49.234;-2.094;2023-01-09T05:51:05;1;1;
73241;PMS5003;65659;49.234;-2.094;2023-01-09T05:53:31;2;0;
73241;PMS5003;65659;49.234;-2.094;2023-01-09T05:55:57;2;2;
73241;PMS5003;65659;49.234;-2.094;2023-01-09T05:58:23;0;0;
73241;PMS5003;65659;49.234;-2.094;2023-01-09T06:00:48;1;1;
73241;PMS5003;65659;49.234;-2.094;2023-01-09T06:03:14;2;2;
73241;PMS5003;65659;49.234;-2.094;2023-01-09T06:05:40;1;1;
73241;PMS5003;65659;49.234;-2.094;2023-01-09T06:08:05;3;3;
73241;PMS5003;65659;49.234;-2.094;2023-01-09T06:10:31;1;1;
73241;PMS5003;65659;49.234;-2.094;2023-01-09T06:12:57;1;1;
73241;PMS5003;65659;49.234;-2.094;2023-01-09T06:15:23;0;0;
73241;PMS5003;65659;49.234;-2.094;2023-01-09T06:17:48;1;1;
73241;PMS5003;65659;49.234;-2.094;2023-01-09T06:20:15;0;0;
73241;PMS5003;65659;49.234;-2.094;2023-01-09T06:22:40;1;1;
73241;PMS5003;65659;49.234;-2.094;2023-01-09T06:25:06;1;1;
73241;PMS5003;65659;49.234;-2.094;2023-01-09T06:27:31;1;1;
73241;PMS5003;65659;49.234;-2.094;2023-01-09T06:29:57;1;1;
73241;PMS5003;65659;49.234;-2.094;2023-01-09T06:32:23;1;1;
73241;PMS5003;65659;49.234;-2.094;2023-01-09T06:34:48;2;2;
73241;PMS5003;65659;49.234;-2.094;2023-01-09T06:37:14;1;1;
73241;PMS5003;65659;49.234;-2.094;2023-01-09T06:39:40;3;1;
73241;PMS5003;65659;49.234;-2.094;2023-01-09T06:42:05;1;1;
73241;PMS5003;65659;49.234;-2.094;2023-01-09T06:44:31;2;2;
73241;PMS5003;65659;49.234;-2.094;2023-01-09T06:46:57;2;2;
73241;PMS5003;65659;49.234;-2.094;2023-01-09T06:49:23;1;1;
73241;PMS5003;65659;49.234;-2.094;2023-01-09T06:51:48;0;0;
73241;PMS5003;65659;49.234;-2.094;2023-01-09T06:54:14;2;2;
73241;PMS5003;65659;49.234;-2.094;2023-01-09T06:56:40;1;1;
73241;PMS5003;65659;49.234;-2.094;2023-01-09T06:59:05;1;0;
73241;PMS5003;65659;49.234;-2.094;2023-01-09T07:01:31;2;2;
73241;PMS5003;65659;49.234;-2.094;2023-01-09T07:03:57;0;0;
73241;PMS5003;65659;49.234;-2.094;2023-01-09T07:06:23;2;2;
73241;PMS5003;65659;49.234;-2.094;2023-01-09T07:08:48;1;1;
73241;PMS5003;65659;49.234;-2.094;2023-01-09T07:11:14;1;1;
73241;PMS5003;65659;49.234;-2.094;2023-01-09T07:13:40;3;2;
73241;PMS5003;65659;49.234;-2.094;2023-01-09T07:16:06;2;2;
73241;PMS5003;65659;49.234;-2.094;2023-01-09T07:18:31;1;1;
73241;PMS5003;65659;49.234;-2.094;2023-01-09T07:20:57;1;1;
73241;PMS5003;65659;49.234;-2.094;2023-01-09T07:23:23;1;0;
73241;PMS5003;65659;49.234;-2.094;2023-01-09T07:25:49;1;1;
73241;PMS5003;65659;49.234;-2.094;2023-01-09T07:28:14;3;2;
73241;PMS5003;65659;49.234;-2.094;2023-01-09T07:30:40;2;1;
73241;PMS5003;65659;49.234;-2.094;2023-01-09T07:33:06;1;1;
73241;PMS5003;65659;49.234;-2.094;2023-01-09T07:35:32;1;1;
73241;PMS5003;65659;49.234;-2.094;2023-01-09T07:37:57;1;1;
73241;PMS5003;65659;49.234;-2.094;2023-01-09T07:40:23;1;1;
73241;PMS5003;65659;49.234;-2.094;2023-01-09T07:42:51;1;1;
73241;PMS5003;65659;49.234;-2.094;2023-01-09T07:45:15;1;0;
73241;PMS5003;65659;49.234;-2.094;2023-01-09T07:47:40;1;1;
73241;PMS5003;65659;49.234;-2.094;2023-01-09T07:50:07;1;1;
73241;PMS5003;65659;49.234;-2.094;2023-01-09T07:52:32;1;1;
73241;PMS5003;65659;49.234;-2.094;2023-01-09T07:54:57;2;2;
73241;PMS5003;65659;49.234;-2.094;2023-01-09T07:57:24;0;0;
73241;PMS5003;65659;49.234;-2.094;2023-01-09T07:59:49;1;1;
73241;PMS5003;65659;49.234;-2.094;2023-01-09T08:02:15;1;1;
73241;PMS5003;65659;49.234;-2.094;2023-01-09T08:04:40;1;1;
73241;PMS5003;65659;49.234;-2.094;2023-01-09T08:07:06;1;0;
73241;PMS5003;65659;49.234;-2.094;2023-01-09T08:09:32;1;1;
73241;PMS5003;65659;49.234;-2.094;2023-01-09T08:11:58;2;2;
73241;PMS5003;65659;49.234;-2.094;2023-01-09T08:14:23;1;1;
73241;PMS5003;65659;49.234;-2.094;2023-01-09T08:16:49;1;1;
73241;PMS5003;65659;49.234;-2.094;2023-01-09T08:19:15;0;0;
73241;PMS5003;65659;49.234;-2.094;2023-01-09T08:21:40;3;3;
73241;PMS5003;65659;49.234;-2.094;2023-01-09T08:24:06;2;2;
73241;PMS5003;65659;49.234;-2.094;2023-01-09T08:26:32;2;1;
73241;PMS5003;65659;49.234;-2.094;2023-01-09T08:28:56;4;4;
73241;PMS5003;65659;49.234;-2.094;2023-01-09T08:31:22;4;3;
73241;PMS5003;65659;49.234;-2.094;2023-01-09T08:33:47;2;2;
73241;PMS5003;65659;49.234;-2.094;2023-01-09T08:36:13;1;0;
73241;PMS5003;65659;49.234;-2.094;2023-01-09T08:38:39;1;0;
73241;PMS5003;65659;49.234;-2.094;2023-01-09T08:41:05;4;3;
73241;PMS5003;65659;49.234;-2.094;2023-01-09T08:43:30;1;1;
73241;PMS5003;65659;49.234;-2.094;2023-01-09T08:45:56;2;1;
73241;PMS5003;65659;49.234;-2.094;2023-01-09T08:48:22;2;2;
73241;PMS5003;65659;49.234;-2.094;2023-01-09T08:50:47;2;2;
73241;PMS5003;65659;49.234;-2.094;2023-01-09T08:53:13;0;0;
73241;PMS5003;65659;49.234;-2.094;2023-01-09T08:55:38;2;2;
73241;PMS5003;65659;49.234;-2.094;2023-01-09T08:58:04;5;4;
73241;PMS5003;65659;49.234;-2.094;2023-01-09T09:00:30;0;0;
73241;PMS5003;65659;49.234;-2.094;2023-01-09T09:02:57;3;2;
73241;PMS5003;65659;49.234;-2.094;2023-01-09T09:05:22;3;3;
73241;PMS5003;65659;49.234;-2.094;2023-01-09T09:07:47;3;2;
73241;PMS5003;65659;49.234;-2.094;2023-01-09T09:10:13;0;0;
73241;PMS5003;65659;49.234;-2.094;2023-01-09T09:12:38;0;0;
73241;PMS5003;65659;49.234;-2.094;2023-01-09T09:15:05;2;1;
73241;PMS5003;65659;49.234;-2.094;2023-01-09T09:17:30;4;3;
73241;PMS5003;65659;49.234;-2.094;2023-01-09T09:19:55;5;4;
73241;PMS5003;65659;49.234;-2.094;2023-01-09T09:22:21;2;2;
73241;PMS5003;65659;49.234;-2.094;2023-01-09T09:24:46;3;3;
73241;PMS5003;65659;49.234;-2.094;2023-01-09T09:27:13;4;3;
73241;PMS5003;65659;49.234;-2.094;2023-01-09T09:29:38;2;2;
73241;PMS5003;65659;49.234;-2.094;2023-01-09T09:32:05;3;2;
73241;PMS5003;65659;49.234;-2.094;2023-01-09T09:34:30;2;2;
73241;PMS5003;65659;49.234;-2.094;2023-01-09T09:36:55;5;4;
73241;PMS5003;65659;49.234;-2.094;2023-01-09T09:39:22;3;3;
73241;PMS5003;65659;49.234;-2.094;2023-01-09T09:41:54;6;5;
73241;PMS5003;65659;49.234;-2.094;2023-01-09T09:44:18;5;4;
73241;PMS5003;65659;49.234;-2.094;2023-01-09T09:46:39;5;4;
73241;PMS5003;65659;49.234;-2.094;2023-01-09T09:49:04;3;3;
73241;PMS5003;65659;49.234;-2.094;2023-01-09T09:51:33;4;2;
73241;PMS5003;65659;49.234;-2.094;2023-01-09T09:53:56;4;3;
73241;PMS5003;65659;49.234;-2.094;2023-01-09T09:56:21;3;3;
73241;PMS5003;65659;49.234;-2.094;2023-01-09T09:58:48;4;4;
73241;PMS5003;65659;49.234;-2.094;2023-01-09T10:01:14;3;3;
73241;PMS5003;65659;49.234;-2.094;2023-01-09T10:03:39;1;1;
73241;PMS5003;65659;49.234;-2.094;2023-01-09T10:06:04;5;3;
73241;PMS5003;65659;49.234;-2.094;2023-01-09T10:08:33;1;1;
73241;PMS5003;65659;49.234;-2.094;2023-01-09T10:10:55;3;2;
73241;PMS5003;65659;49.234;-2.094;2023-01-09T10:13:22;2;2;
73241;PMS5003;65659;49.234;-2.094;2023-01-09T10:15:47;1;1;
73241;PMS5003;65659;49.234;-2.094;2023-01-09T10:18:15;3;3;
73241;PMS5003;65659;49.234;-2.094;2023-01-09T10:20:42;1;1;
73241;PMS5003;65659;49.234;-2.094;2023-01-09T10:23:07;4;3;
73241;PMS5003;65659;49.234;-2.094;2023-01-09T10:25:32;2;2;
73241;PMS5003;65659;49.234;-2.094;2023-01-09T10:28:01;1;1;
73241;PMS5003;65659;49.234;-2.094;2023-01-09T10:30:24;4;4;
73241;PMS5003;65659;49.234;-2.094;2023-01-09T10:32:49;2;1;
73241;PMS5003;65659;49.234;-2.094;2023-01-09T10:37:38;2;2;
73241;PMS5003;65659;49.234;-2.094;2023-01-09T10:40:04;1;1;
73241;PMS5003;65659;49.234;-2.094;2023-01-09T10:42:30;1;1;
73241;PMS5003;65659;49.234;-2.094;2023-01-09T10:44:56;2;1;
73241;PMS5003;65659;49.234;-2.094;2023-01-09T10:47:23;3;3;
73241;PMS5003;65659;49.234;-2.094;2023-01-09T10:49:46;3;3;
73241;PMS5003;65659;49.234;-2.094;2023-01-09T10:52:14;2;2;
73241;PMS5003;65659;49.234;-2.094;2023-01-09T10:54:39;5;4;
73241;PMS5003;65659;49.234;-2.094;2023-01-09T10:57:05;6;5;
73241;PMS5003;65659;49.234;-2.094;2023-01-09T10:59:29;8;8;
73241;PMS5003;65659;49.234;-2.094;2023-01-09T11:01:55;9;9;
73241;PMS5003;65659;49.234;-2.094;2023-01-09T11:04:22;8;8;
73241;PMS5003;65659;49.234;-2.094;2023-01-09T11:06:46;7;7;
73241;PMS5003;65659;49.234;-2.094;2023-01-09T11:09:11;10;10;
73241;PMS5003;65659;49.234;-2.094;2023-01-09T11:11:37;9;8;
73241;PMS5003;65659;49.234;-2.094;2023-01-09T11:14:04;9;8;
73241;PMS5003;65659;49.234;-2.094;2023-01-09T11:16:27;9;8;
73241;PMS5003;65659;49.234;-2.094;2023-01-09T11:18:53;8;8;
73241;PMS5003;65659;49.234;-2.094;2023-01-09T11:23:44;11;8;
73241;PMS5003;65659;49.234;-2.094;2023-01-09T11:28:35;5;4;
73241;PMS5003;65659;49.234;-2.094;2023-01-09T11:31:01;8;6;
73241;PMS5003;65659;49.234;-2.094;2023-01-09T11:33:28;8;6;
73241;PMS5003;65659;49.234;-2.094;2023-01-09T11:35:54;8;6;
73241;PMS5003;65659;49.234;-2.094;2023-01-09T11:38:18;7;7;
73241;PMS5003;65659;49.234;-2.094;2023-01-09T11:40:45;6;6;
73241;PMS5003;65659;49.234;-2.094;2023-01-09T11:43:12;9;8;
73241;PMS5003;65659;49.234;-2.094;2023-01-09T11:45:35;8;6;
73241;PMS5003;65659;49.234;-2.094;2023-01-09T11:48:01;7;6;
73241;PMS5003;65659;49.234;-2.094;2023-01-09T11:50:27;6;6;
73241;PMS5003;65659;49.234;-2.094;2023-01-09T11:55:18;8;5;
73241;PMS5003;65659;49.234;-2.094;2023-01-09T11:57:43;6;5;
73241;PMS5003;65659;49.234;-2.094;2023-01-09T12:00:22;6;5;
73241;PMS5003;65659;49.234;-2.094;2023-01-09T12:02:38;5;5;
73241;PMS5003;65659;49.234;-2.094;2023-01-09T12:05:00;4;4;
73241;PMS5003;65659;49.234;-2.094;2023-01-09T12:07:36;5;5;
73241;PMS5003;65659;49.234;-2.094;2023-01-09T12:09:54;5;5;
73241;PMS5003;65659;49.234;-2.094;2023-01-09T12:12:19;4;3;
73241;PMS5003;65659;49.234;-2.094;2023-01-09T12:14:45;5;5;
73241;PMS5003;65659;49.234;-2.094;2023-01-09T12:17:13;5;5;
73241;PMS5003;65659;49.234;-2.094;2023-01-09T12:19:44;4;4;
73241;PMS5003;65659;49.234;-2.094;2023-01-09T12:22:01;6;5;
73241;PMS5003;65659;49.234;-2.094;2023-01-09T12:24:29;6;5;
73241;PMS5003;65659;49.234;-2.094;2023-01-09T12:26:54;6;4;
73241;PMS5003;65659;49.234;-2.094;2023-01-09T12:29:21;4;4;
73241;PMS5003;65659;49.234;-2.094;2023-01-09T12:31:46;4;4;
73241;PMS5003;65659;49.234;-2.094;2023-01-09T12:34:12;3;3;
73241;PMS5003;65659;49.234;-2.094;2023-01-09T12:36:37;3;2;
73241;PMS5003;65659;49.234;-2.094;2023-01-09T12:39:01;5;5;
73241;PMS5003;65659;49.234;-2.094;2023-01-09T12:41:30;3;3;
73241;PMS5003;65659;49.234;-2.094;2023-01-09T12:43:54;3;3;
73241;PMS5003;65659;49.234;-2.094;2023-01-09T12:46:17;2;2;
73241;PMS5003;65659;49.234;-2.094;2023-01-09T12:48:46;3;2;
73241;PMS5003;65659;49.234;-2.094;2023-01-09T12:51:10;5;4;
73241;PMS5003;65659;49.234;-2.094;2023-01-09T12:53:34;4;3;
73241;PMS5003;65659;49.234;-2.094;2023-01-09T12:55:59;2;2;
73241;PMS5003;65659;49.234;-2.094;2023-01-09T12:58:28;3;3;
73241;PMS5003;65659;49.234;-2.094;2023-01-09T13:00:51;5;4;
73241;PMS5003;65659;49.234;-2.094;2023-01-09T13:03:17;2;2;
73241;PMS5003;65659;49.234;-2.094;2023-01-09T13:05:43;3;3;
73241;PMS5003;65659;49.234;-2.094;2023-01-09T13:08:08;3;2;
73241;PMS5003;65659;49.234;-2.094;2023-01-09T13:10:35;3;3;
73241;PMS5003;65659;49.234;-2.094;2023-01-09T13:12:59;3;3;
73241;PMS5003;65659;49.234;-2.094;2023-01-09T13:15:26;3;3;
73241;PMS5003;65659;49.234;-2.094;2023-01-09T13:17:50;3;2;
73241;PMS5003;65659;49.234;-2.094;2023-01-09T13:20:18;4;2;
73241;PMS5003;65659;49.234;-2.094;2023-01-09T13:22:41;1;1;
73241;PMS5003;65659;49.234;-2.094;2023-01-09T13:27:34;2;2;
73241;PMS5003;65659;49.234;-2.094;2023-01-09T13:30:00;4;2;
73241;PMS5003;65659;49.234;-2.094;2023-01-09T13:32:28;6;6;
73241;PMS5003;65659;49.234;-2.094;2023-01-09T13:34:50;3;3;
73241;PMS5003;65659;49.234;-2.094;2023-01-09T13:37:19;1;1;
73241;PMS5003;65659;49.234;-2.094;2023-01-09T13:39:40;3;3;
73241;PMS5003;65659;49.234;-2.094;2023-01-09T13:42:06;2;1;
73241;PMS5003;65659;49.234;-2.094;2023-01-09T13:44:32;2;1;
73241;PMS5003;65659;49.234;-2.094;2023-01-09T13:46:58;3;2;
73241;PMS5003;65659;49.234;-2.094;2023-01-09T13:49:29;2;1;
73241;PMS5003;65659;49.234;-2.094;2023-01-09T13:51:58;2;2;
73241;PMS5003;65659;49.234;-2.094;2023-01-09T13:54:14;2;1;
73241;PMS5003;65659;49.234;-2.094;2023-01-09T13:59:22;4;3;
73241;PMS5003;65659;49.234;-2.094;2023-01-09T14:01:41;2;2;
73241;PMS5003;65659;49.234;-2.094;2023-01-09T14:06:22;2;2;
73241;PMS5003;65659;49.234;-2.094;2023-01-09T14:08:49;3;3;
73241;PMS5003;65659;49.234;-2.094;2023-01-09T14:11:18;2;2;
73241;PMS5003;65659;49.234;-2.094;2023-01-09T14:13:42;5;4;
73241;PMS5003;65659;49.234;-2.094;2023-01-09T14:16:06;1;1;
73241;PMS5003;65659;49.234;-2.094;2023-01-09T14:18:31;4;4;
73241;PMS5003;65659;49.234;-2.094;2023-01-09T14:20:57;2;2;
73241;PMS5003;65659;49.234;-2.094;2023-01-09T14:23:23;4;2;
73241;PMS5003;65659;49.234;-2.094;2023-01-09T14:25:48;3;3;
73241;PMS5003;65659;49.234;-2.094;2023-01-09T14:28:18;2;2;
73241;PMS5003;65659;49.234;-2.094;2023-01-09T14:35:33;3;2;
73241;PMS5003;65659;49.234;-2.094;2023-01-09T14:38:02;3;2;
73241;PMS5003;65659;49.234;-2.094;2023-01-09T14:40:22;2;2;
73241;PMS5003;65659;49.234;-2.094;2023-01-09T14:42:49;3;3;
73241;PMS5003;65659;49.234;-2.094;2023-01-09T14:45:14;4;3;
73241;PMS5003;65659;49.234;-2.094;2023-01-09T14:47:40;3;3;
73241;PMS5003;65659;49.234;-2.094;2023-01-09T14:50:06;2;2;
73241;PMS5003;65659;49.234;-2.094;2023-01-09T14:52:32;2;2;
73241;PMS5003;65659;49.234;-2.094;2023-01-09T14:54:57;0;0;
73241;PMS5003;65659;49.234;-2.094;2023-01-09T14:57:23;1;1;
73241;PMS5003;65659;49.234;-2.094;2023-01-09T15:02:14;4;4;
73241;PMS5003;65659;49.234;-2.094;2023-01-09T15:04:39;3;2;
73241;PMS5003;65659;49.234;-2.094;2023-01-09T15:07:05;3;3;
73241;PMS5003;65659;49.234;-2.094;2023-01-09T15:09:32;2;1;
73241;PMS5003;65659;49.234;-2.094;2023-01-09T15:11:57;1;0;
73241;PMS5003;65659;49.234;-2.094;2023-01-09T15:14:27;3;2;
73241;PMS5003;65659;49.234;-2.094;2023-01-09T15:16:48;2;2;
73241;PMS5003;65659;49.234;-2.094;2023-01-09T15:19:14;4;4;
73241;PMS5003;65659;49.234;-2.094;2023-01-09T15:21:39;1;1;
73241;PMS5003;65659;49.234;-2.094;2023-01-09T15:24:10;4;3;
73241;PMS5003;65659;49.234;-2.094;2023-01-09T15:26:31;3;2;
73241;PMS5003;65659;49.234;-2.094;2023-01-09T15:29:00;1;1;
73241;PMS5003;65659;49.234;-2.094;2023-01-09T15:31:22;4;2;
73241;PMS5003;65659;49.234;-2.094;2023-01-09T15:33:48;2;2;
73241;PMS5003;65659;49.234;-2.094;2023-01-09T15:36:14;2;2;
73241;PMS5003;65659;49.234;-2.094;2023-01-09T15:38:39;2;2;
73241;PMS5003;65659;49.234;-2.094;2023-01-09T15:41:07;2;2;
73241;PMS5003;65659;49.234;-2.094;2023-01-09T15:43:30;4;3;
73241;PMS5003;65659;49.234;-2.094;2023-01-09T15:45:56;3;2;
73241;PMS5003;65659;49.234;-2.094;2023-01-09T15:48:23;1;1;
73241;PMS5003;65659;49.234;-2.094;2023-01-09T15:50:48;3;3;
73241;PMS5003;65659;49.234;-2.094;2023-01-09T15:53:13;3;3;
73241;PMS5003;65659;49.234;-2.094;2023-01-09T15:55:38;2;2;
73241;PMS5003;65659;49.234;-2.094;2023-01-09T15:58:04;3;2;
73241;PMS5003;65659;49.234;-2.094;2023-01-09T16:00:31;3;2;
73241;PMS5003;65659;49.234;-2.094;2023-01-09T16:02:55;1;1;
73241;PMS5003;65659;49.234;-2.094;2023-01-09T16:05:21;3;3;
73241;PMS5003;65659;49.234;-2.094;2023-01-09T16:07:47;6;5;
73241;PMS5003;65659;49.234;-2.094;2023-01-09T16:12:38;5;4;
73241;PMS5003;65659;49.234;-2.094;2023-01-09T16:15:04;5;4;
73241;PMS5003;65659;49.234;-2.094;2023-01-09T16:17:29;4;4;
73241;PMS5003;65659;49.234;-2.094;2023-01-09T16:19:55;3;3;
73241;PMS5003;65659;49.234;-2.094;2023-01-09T16:22:21;3;3;
73241;PMS5003;65659;49.234;-2.094;2023-01-09T16:24:46;4;4;
73241;PMS5003;65659;49.234;-2.094;2023-01-09T16:29:38;4;4;
73241;PMS5003;65659;49.234;-2.094;2023-01-09T16:32:04;3;3;
73241;PMS5003;65659;49.234;-2.094;2023-01-09T16:34:29;4;3;
73241;PMS5003;65659;49.234;-2.094;2023-01-09T16:36:54;5;5;
73241;PMS5003;65659;49.234;-2.094;2023-01-09T16:39:21;3;3;
73241;PMS5003;65659;49.234;-2.094;2023-01-09T16:41:46;5;5;
73241;PMS5003;65659;49.234;-2.094;2023-01-09T16:44:11;4;3;
73241;PMS5003;65659;49.234;-2.094;2023-01-09T16:46:37;3;3;
73241;PMS5003;65659;49.234;-2.094;2023-01-09T16:49:02;4;3;
73241;PMS5003;65659;49.234;-2.094;2023-01-09T16:51:28;4;3;
73241;PMS5003;65659;49.234;-2.094;2023-01-09T16:53:54;5;5;
73241;PMS5003;65659;49.234;-2.094;2023-01-09T16:56:20;2;2;